Time,TemperatureF,DewpointF,PressureIn,WindDirection,WindDirectionDegrees,WindSpeedMPH,WindSpeedGustMPH,Humidity,HourlyPrecipIn,Conditions,Clouds,dailyrainin,SoftwareType,DateUTC
2013-04-22 00:00:00,49.6,37.9,30.44,ENE,60,2.0,5.0,64,0.00,OVC,,0.00,WeatherDisplay:10.37,2013-04-22 04:00:00,
2013-04-22 00:30:00,49.1,37.4,30.44,East,94,2.0,6.0,64,0.00,OVC,,0.00,WeatherDisplay:10.37,2013-04-22 04:30:00,
2013-04-22 01:00:00,48.2,37.0,30.44,ENE,78,1.0,3.0,65,0.00,OVC,,0.00,WeatherDisplay:10.37,2013-04-22 05:00:00,
2013-04-22 01:30:00,47.3,36.5,30.43,East,88,1.0,3.0,66,0.00,OVC,,0.00,WeatherDisplay:10.37,2013-04-22 05:30:00,
2013-04-22 02:00:00,46.4,36.0,30.42,NE,48,0.0,3.0,67,0.00,OVC,,0.00,WeatherDisplay:10.37,2013-04-22 06:00:00,
2013-04-22 02:30:00,45.5,35.9,30.42,NE,51,0.0,2.0,69,0.00,OVC,,0.00,WeatherDisplay:10.37,2013-04-22 06:30:00,
2013-04-22 03:00:00,44.4,35.6,30.41,North,6,1.0,5.0,71,0.00,OVC,,0.00,WeatherDisplay:10.37,2013-04-22 07:00:00,
2013-04-22 03:30:00,43.5,35.1,30.41,ENE,65,3.0,6.0,72,0.00,CLR,,0.00,WeatherDisplay:10.37,2013-04-22 07:30:00,
2013-04-22 04:00:00,42.6,33.9,30.39,East,85,1.0,5.0,71,0.00,CLR,,0.00,WeatherDisplay:10.37,2013-04-22 08:00:00,
2013-04-22 04:30:00,41.8,33.0,30.39,East,90,0.0,5.0,71,0.00,CLR,,0.00,WeatherDisplay:10.37,2013-04-22 08:30:00,
2013-04-22 05:00:00,41.0,32.3,30.39,NE,38,0.0,4.0,71,0.00,CLR,,0.00,WeatherDisplay:10.37,2013-04-22 09:00:00,
2013-04-22 05:30:00,40.5,32.1,30.40,North,11,1.0,3.0,72,0.00,CLR,,0.00,WeatherDisplay:10.37,2013-04-22 09:30:00,
2013-04-22 06:00:00,39.9,31.6,30.40,NW,309,1.0,3.0,72,0.00,CLR,,0.00,WeatherDisplay:10.37,2013-04-22 10:00:00,
2013-04-22 06:30:00,39.6,31.6,30.41,NW,317,1.0,3.0,73,0.00,CLR,,0.00,WeatherDisplay:10.37,2013-04-22 10:30:00,
2013-04-22 07:00:00,39.2,31.6,30.43,NW,311,0.0,5.0,74,0.00,CLR,,0.00,WeatherDisplay:10.37,2013-04-22 11:00:00,
2013-04-22 07:30:00,39.2,33.2,30.43,North,350,3.0,4.0,79,0.00,CLR,,0.00,WeatherDisplay:10.37,2013-04-22 11:30:00,
2013-04-22 08:00:00,39.6,33.3,30.43,North,4,2.0,6.0,78,0.00,CLR,,0.00,WeatherDisplay:10.37,2013-04-22 12:00:00,
2013-04-22 08:30:00,40.5,33.8,30.43,NNW,333,5.0,8.0,77,0.00,CLR,,0.00,WeatherDisplay:10.37,2013-04-22 12:30:00,
2013-04-22 09:00:00,42.5,33.4,30.43,North,359,1.0,5.0,70,0.00,CLR,,0.00,WeatherDisplay:10.37,2013-04-22 13:00:00,
2013-04-22 09:30:00,45.8,33.1,30.43,North,356,2.0,5.0,61,0.00,CLR,,0.00,WeatherDisplay:10.37,2013-04-22 13:30:00,
2013-04-22 10:00:00,49.3,32.4,30.42,ENE,72,2.0,7.0,52,0.00,CLR,,0.00,WeatherDisplay:10.37,2013-04-22 14:00:00,
2013-04-22 10:30:00,51.4,31.3,30.41,NW,313,3.0,7.0,46,0.00,CLR,,0.00,WeatherDisplay:10.37,2013-04-22 14:30:00,
2013-04-22 11:00:00,53.3,33.1,30.41,NW,312,3.0,8.0,46,0.00,CLR,,0.00,WeatherDisplay:10.37,2013-04-22 15:00:00,
2013-04-22 11:30:00,55.2,32.5,30.40,NNW,330,1.0,6.0,42,0.00,CLR,,0.00,WeatherDisplay:10.37,2013-04-22 15:30:00,
2013-04-22 12:00:00,57.1,33.6,30.39,NNW,336,3.0,9.0,41,0.00,CLR,,0.00,WeatherDisplay:10.37,2013-04-22 16:00:00,
2013-04-22 12:30:00,58.6,32.3,30.36,NW,318,3.0,6.0,37,0.00,CLR,,0.00,WeatherDisplay:10.37,2013-04-22 16:30:00,
2013-04-22 13:00:00,59.9,30.7,30.35,NNW,335,5.0,7.0,33,0.00,CLR,,0.00,WeatherDisplay:10.37,2013-04-22 17:00:00,
2013-04-22 13:30:00,60.4,31.9,30.33,NNW,332,5.0,7.0,34,0.00,CLR,,0.00,WeatherDisplay:10.37,2013-04-22 17:30:00,
2013-04-22 14:00:00,61.2,31.8,30.33,WNW,302,2.0,7.0,33,0.00,CLR,,0.00,WeatherDisplay:10.37,2013-04-22 18:00:00,
2013-04-22 14:30:00,61.8,30.8,30.31,West,278,3.0,8.0,31,0.00,CLR,,0.00,WeatherDisplay:10.37,2013-04-22 18:30:00,
2013-04-22 15:00:00,63.0,30.2,30.31,NNE,28,6.0,9.0,29,0.00,CLR,,0.00,WeatherDisplay:10.37,2013-04-22 19:00:00,
2013-04-22 15:30:00,62.1,32.6,30.29,East,101,6.0,9.0,33,0.00,CLR,,0.00,WeatherDisplay:10.37,2013-04-22 19:30:00,
2013-04-22 16:00:00,61.2,30.3,30.27,NE,43,6.0,8.0,31,0.00,CLR,,0.00,WeatherDisplay:10.37,2013-04-22 20:00:00,
2013-04-22 16:30:00,61.2,31.8,30.27,North,351,1.0,7.0,33,0.00,CLR,,0.00,WeatherDisplay:10.37,2013-04-22 20:30:00,
2013-04-22 17:00:00,61.2,32.5,30.26,ESE,116,2.0,6.0,34,0.00,CLR,,0.00,WeatherDisplay:10.37,2013-04-22 21:00:00,
2013-04-22 17:30:00,60.7,32.2,30.26,NW,311,2.0,6.0,34,0.00,CLR,,0.00,WeatherDisplay:10.37,2013-04-22 21:30:00,
2013-04-22 18:00:00,60.3,33.2,30.25,NNE,23,2.0,5.0,36,0.00,CLR,,0.00,WeatherDisplay:10.37,2013-04-22 22:00:00,
2013-04-22 18:30:00,59.7,34.0,30.25,NE,53,1.0,5.0,38,0.00,CLR,,0.00,WeatherDisplay:10.37,2013-04-22 22:30:00,
2013-04-22 19:00:00,58.8,33.9,30.25,ENE,77,0.0,5.0,39,0.00,CLR,,0.00,WeatherDisplay:10.37,2013-04-22 23:00:00,
2013-04-22 19:30:00,58.5,34.8,30.25,North,8,0.0,5.0,41,0.00,CLR,,0.00,WeatherDisplay:10.37,2013-04-22 23:30:00,
2013-04-22 20:00:00,58.2,35.8,30.26,West,274,0.0,7.0,43,0.00,CLR,,0.00,WeatherDisplay:10.37,2013-04-23 00:00:00,
2013-04-22 20:30:00,57.2,36.0,30.27,East,89,1.0,5.0,45,0.00,SCT,,0.00,WeatherDisplay:10.37,2013-04-23 00:30:00,
2013-04-22 21:00:00,56.5,37.0,30.27,East,79,1.0,5.0,48,0.00,SCT,,0.00,WeatherDisplay:10.37,2013-04-23 01:00:00,
2013-04-22 21:30:00,55.8,37.4,30.27,North,8,1.0,6.0,50,0.00,BKN,,0.00,WeatherDisplay:10.37,2013-04-23 01:30:00,
2013-04-22 22:00:00,55.3,37.5,30.28,NNW,338,1.0,5.0,51,0.00,BKN,,0.00,WeatherDisplay:10.37,2013-04-23 02:00:00,
2013-04-22 22:30:00,54.5,37.7,30.28,NNE,21,2.0,7.0,53,0.00,BKN,,0.00,WeatherDisplay:10.37,2013-04-23 02:30:00,
2013-04-22 23:00:00,54.1,37.8,30.28,NNE,30,0.0,5.0,54,0.00,BKN,,0.00,WeatherDisplay:10.37,2013-04-23 03:00:00,
2013-04-22 23:30:00,53.6,37.8,30.28,NNE,26,1.0,6.0,55,0.00,BKN,,0.00,WeatherDisplay:10.37,2013-04-23 03:30:00,